New York, NY

4:18 PM EST on January 30, 2015 (GMT -0500)
Murray Hill | Change Station
CLOSE
Current Station
Personal Weather Station
Location: New York, NY
Elevation: 98 ft
Nearby Weather Stations
Active Advisory: Wind Advisory

Elev 98 ft 40.75 °N, 73.98 °W | Updated 2 seconds ago

Partly Cloudy
Partly Cloudy
36.3 °F
Feels Like 31 °F
N
7.0
Wind Variable Wind from West
Gusts 21.0 mph

Today
High -- | Low -- °F
--% Chance of Precip.
Yesterday
High -- | Low -- °F
Precip. -- in
7:08 AM 5:10 PM
Waxing Gibbous, 85% visible
Pressure 29.84 in
Visibility 10.0 miles
Clouds Few 4900 ft
Windchill 31 °F
Dew Point 20 °F
Humidity 52%
Rainfall 0.07 in
Snow Depth Not available.
UV 1 out of 12
Pollen .10 out of 12
Air Quality Not available.
Flu Activity Not available.
METAR KNYC 302051Z AUTO 31014G29KT 10SM FEW049 02/M09 A2987 RMK AO2 PK WND 30029/2047 SLP105 T00221094 53006

More Conditions Fewer Conditions

Pressure 29.84 in
Visibility 10.0 miles
Clouds Few 4900 ft
Windchill 31 °F
Dew Point 20 °F
Humidity 52%
Rainfall 0.07 in
Snow Depth Not available.
UV 1 out of 12
Pollen .10 out of 12
Air Quality Not available.
Flu Activity Not available.
METAR KNYC 302051Z AUTO 31014G29KT 10SM FEW049 02/M09 A2987 RMK AO2 PK WND 30029/2047 SLP105 T00221094 53006

More Conditions Fewer Conditions

10-Day Weather Forecast

Almanac

Astronomy

Jan. 30, 2015 Rise Set
Actual Time
Civil Twilight
Nautical Twilight
Astronomical Twilight
Moon
Length of Visible Light
Length of Day
Tomorrow will be .
, % of the Moon is Illuminated

Today's Extremes

State Highs State Lows

Community

WunderPhotos

Upload Photos

1,791,895 photos uploaded!

WunderBlogs® & News

Nearby

Air Quality

  Air Quality AQ Index Pollutant
Not available.

Snow Depth

Station Depth Elevation

Earthquake Activity

City Distance Mag. Time & Date
Minimum magnitude displayed is 2.5.

Coastal Water Temperatures

Place Temperature

Nearby Weather Stations